METAR Data
IDs: Format: Raw Decoded Include TAF

Data at: 2331 UTC 17 Apr 2021

KPGV 172315Z AUTO 00000KT 10SM CLR 17/05 A2985 RMK AO2
KPGV 172255Z AUTO 30004KT 10SM CLR 18/05 A2985 RMK AO2
KPGV 172235Z AUTO 32003KT 10SM CLR 18/04 A2985 RMK AO2
KPGV 172215Z AUTO 29003KT 10SM CLR 18/05 A2985 RMK AO2
KPGV 172155Z AUTO 00000KT 10SM CLR 18/04 A2985 RMK AO2
KPGV 172135Z AUTO 30003KT 10SM CLR 18/03 A2985 RMK AO2
KPGV 172115Z AUTO 28003KT 10SM CLR 18/04 A2984 RMK AO2
KPGV 172055Z AUTO 31003KT 10SM CLR 18/04 A2985 RMK AO2
KPGV 172035Z AUTO 29004KT 10SM CLR 18/04 A2984 RMK AO2
KPGV 172015Z AUTO 27005KT 10SM CLR 18/03 A2985 RMK AO2
KPGV 171955Z AUTO 24006KT 10SM CLR 18/03 A2985 RMK AO2
KPGV 171935Z AUTO 22007KT 10SM CLR 19/04 A2985 RMK AO2
KPGV 171915Z AUTO 21006KT 10SM CLR 20/04 A2985 RMK AO2
KPGV 171855Z AUTO 19004KT 10SM CLR 19/03 A2985 RMK AO2
KPGV 171835Z AUTO 00000KT 10SM CLR 19/02 A2986 RMK AO2
KPGV 171815Z AUTO 18003KT 10SM CLR 20/03 A2987 RMK AO2
KPGV 171755Z AUTO 00000KT 10SM CLR 19/02 A2988 RMK AO2
KPGV 171735Z AUTO 18003KT 10SM CLR 18/02 A2988 RMK AO2
KPGV 171715Z AUTO 00000KT 10SM CLR 17/02 A2989 RMK AO2
KPGV 171655Z AUTO 21003KT 10SM CLR 17/02 A2990 RMK AO2
KPGV 171635Z AUTO 00000KT 10SM CLR 17/02 A2990 RMK AO2
KPGV 171615Z AUTO 00000KT 10SM CLR 17/02 A2991 RMK AO2
KPGV 171555Z AUTO 16003KT 10SM CLR 17/03 A2991 RMK AO2
KPGV 171535Z AUTO 00000KT 10SM CLR 17/02 A2991 RMK AO2
KPGV 171515Z AUTO 08004KT 10SM CLR 16/03 A2991 RMK AO2
KPGV 171455Z AUTO 05004KT 10SM CLR 16/02 A2991 RMK AO2
KPGV 171435Z AUTO 00000KT 10SM CLR 15/02 A2992 RMK AO2
KPGV 171415Z AUTO 00000KT 10SM CLR 15/02 A2992 RMK AO2
KPGV 171355Z AUTO 00000KT 10SM CLR 14/03 A2992 RMK AO2
KPGV 171335Z AUTO 11004KT 10SM CLR 13/03 A2991 RMK AO2
KPGV 171315Z AUTO 11003KT 10SM CLR 13/04 A2991 RMK AO2
KPGV 171255Z AUTO 08006KT 10SM CLR 13/04 A2991 RMK AO2
KPGV 171235Z AUTO 04003KT 10SM CLR 11/06 A2991 RMK AO2
KPGV 171215Z AUTO 00000KT 10SM CLR 10/06 A2991 RMK AO2
KPGV 171155Z AUTO 00000KT 10SM CLR 09/06 A2991 RMK AO2
KPGV 171135Z AUTO 00000KT 10SM CLR 08/06 A2991 RMK AO2
KPGV 171115Z AUTO 00000KT 10SM CLR 06/05 A2991 RMK AO2
KPGV 171055Z AUTO 00000KT 10SM CLR 06/05 A2990 RMK AO2
KPGV 171035Z AUTO 00000KT 10SM CLR 06/05 A2990 RMK AO2
KPGV 171015Z AUTO 00000KT 10SM CLR 06/05 A2989 RMK AO2
KPGV 170955Z AUTO 00000KT 10SM CLR 06/05 A2989 RMK AO2
KPGV 170935Z AUTO 00000KT 10SM CLR 06/05 A2988 RMK AO2
KPGV 170915Z AUTO 00000KT 10SM CLR 06/05 A2988 RMK AO2
KPGV 170855Z AUTO 00000KT 10SM CLR 06/05 A2988 RMK AO2
KPGV 170835Z AUTO 00000KT 10SM CLR 06/05 A2988 RMK AO2
KPGV 170815Z AUTO 00000KT 10SM CLR 07/05 A2988 RMK AO2
KPGV 170755Z AUTO 00000KT 10SM CLR 08/05 A2988 RMK AO2
KPGV 170735Z AUTO 00000KT 10SM CLR 08/04 A2988 RMK AO2
KPGV 170715Z AUTO 35003KT 10SM CLR 10/05 A2988 RMK AO2
KPGV 170655Z AUTO 01004KT 10SM CLR 10/05 A2987 RMK AO2
KPGV 170635Z AUTO 36007KT 10SM CLR 11/05 A2986 RMK AO2
KPGV 170615Z AUTO 33003KT 10SM CLR 10/05 A2986 RMK AO2
KPGV 170555Z AUTO 33003KT 10SM CLR 10/05 A2985 RMK AO2
KPGV 170535Z AUTO 00000KT 10SM CLR 09/05 A2984 RMK AO2
KPGV 170515Z AUTO 00000KT 10SM CLR 10/05 A2985 RMK AO2
KPGV 170455Z AUTO 00000KT 10SM CLR 10/06 A2985 RMK AO2
KPGV 170435Z AUTO 00000KT 10SM CLR 10/06 A2985 RMK AO2
KPGV 170415Z AUTO 00000KT 10SM CLR 10/06 A2985 RMK AO2
KPGV 170355Z AUTO 00000KT 10SM CLR 10/05 A2985 RMK AO2
KPGV 170335Z AUTO 00000KT 10SM CLR 11/05 A2985 RMK AO2
KPGV 170315Z AUTO 00000KT 10SM CLR 11/05 A2985 RMK AO2
KPGV 170255Z AUTO 00000KT 10SM CLR 12/05 A2985 RMK AO2
KPGV 170235Z AUTO 25003KT 10SM CLR 12/05 A2985 RMK AO2
KPGV 170215Z AUTO 00000KT 10SM CLR 11/06 A2985 RMK AO2
KPGV 170155Z AUTO 24003KT 10SM CLR 12/06 A2985 RMK AO2
KPGV 170135Z AUTO 00000KT 10SM CLR 13/05 A2985 RMK AO2
KPGV 170115Z AUTO 23003KT 10SM CLR 13/06 A2985 RMK AO2
KPGV 170055Z AUTO 24003KT 10SM CLR 13/06 A2985 RMK AO2
KPGV 170035Z AUTO 00000KT 10SM CLR 15/05 A2984 RMK AO2
KPGV 170015Z AUTO 00000KT 10SM CLR 15/04 A2983 RMK AO2
KPGV 162355Z AUTO 00000KT 10SM CLR 16/03 A2983 RMK AO2
KPGV 162335Z AUTO 00000KT 10SM CLR 17/02 A2983 RMK AO2
KPGV 162315Z AUTO 26004KT 10SM CLR 18/02 A2982 RMK AO2
KPGV 162255Z AUTO 26004KT 10SM CLR 18/02 A2982 RMK AO2
KPGV 162235Z AUTO 26003KT 10SM CLR 18/02 A2982 RMK AO2
KPGV 162215Z AUTO 27003KT 10SM CLR 18/02 A2980 RMK AO2
KPGV 162155Z AUTO 27003KT 10SM CLR 19/01 A2980 RMK AO2
KPGV 162135Z AUTO 24010KT 10SM CLR 20/02 A2980 RMK AO2
KPGV 162115Z AUTO 26007KT 10SM CLR 20/01 A2980 RMK AO2
KPGV 162055Z AUTO 26006KT 10SM CLR 20/02 A2980 RMK AO2
KPGV 162035Z AUTO 29007KT 10SM CLR 19/01 A2980 RMK AO2
KPGV 162015Z AUTO 25009KT 10SM CLR 20/02 A2981 RMK AO2
KPGV 161955Z AUTO 25006KT 10SM CLR 19/01 A2981 RMK AO2
KPGV 161935Z AUTO 30004G15KT 10SM CLR 19/01 A2982 RMK AO2
KPGV 161915Z AUTO 31004KT 10SM CLR 18/01 A2983 RMK AO2
KPGV 161855Z AUTO 29006KT 10SM CLR 18/01 A2984 RMK AO2
KPGV 161835Z AUTO 24009KT 10SM CLR 18/01 A2985 RMK AO2
KPGV 161755Z AUTO 31007KT 263V333 10SM CLR 17/01 A2986 RMK AO2
KPGV 161735Z AUTO 32007KT 10SM CLR 17/01 A2986 RMK AO2
KPGV 161715Z AUTO 32006KT 10SM CLR 17/01 A2988 RMK AO2
KPGV 161655Z AUTO 34003KT 10SM CLR 17/01 A2988 RMK AO2
KPGV 161635Z AUTO 34003KT 10SM CLR 16/00 A2989 RMK AO2
KPGV 161615Z AUTO 25009KT 10SM CLR 16/00 A2990 RMK AO2
KPGV 161555Z AUTO 24005KT 10SM CLR 16/00 A2991 RMK AO2
KPGV 161535Z AUTO 30006KT 10SM CLR 16/00 A2992 RMK AO2
KPGV 161515Z AUTO 30005KT 10SM CLR 15/00 A2992 RMK AO2
KPGV 161455Z AUTO 29004KT 10SM CLR 15/M01 A2993 RMK AO2
KPGV 161435Z AUTO 27006KT 10SM CLR 15/00 A2993 RMK AO2
KPGV 161415Z AUTO 26005KT 10SM CLR 14/00 A2994 RMK AO2
KPGV 161355Z AUTO 28004KT 10SM CLR 13/00 A2994 RMK AO2
KPGV 161335Z AUTO 31004KT 10SM CLR 13/00 A2994 RMK AO2
KPGV 161315Z AUTO 26004KT 10SM CLR 12/01 A2994 RMK AO2
KPGV 161255Z AUTO 00000KT 10SM CLR 11/02 A2994 RMK AO2
KPGV 161235Z AUTO 00000KT 10SM CLR 11/02 A2993 RMK AO2
KPGV 161215Z AUTO 00000KT 10SM CLR 10/02 A2993 RMK AO2
KPGV 161155Z AUTO 00000KT 10SM CLR 09/03 A2993 RMK AO2
KPGV 161135Z AUTO 00000KT 10SM CLR 07/05 A2992 RMK AO2